Time,TemperatureF,DewpointF,PressureIn,WindDirection,WindDirectionDegrees,WindSpeedMPH,WindSpeedGustMPH,Humidity,HourlyPrecipIn,Conditions,Clouds,dailyrainin,SolarRadiationWatts/m^2,SoftwareType,DateUTC
2013-04-12 00:02:00,37.0,26.0,-100.00,NNW,332,2.0,6.0,64,0.00,,,0.00,0.000000,,2013-04-12 06:02:00,
2013-04-12 00:12:00,37.0,26.0,-100.00,NNW,332,2.0,6.0,64,0.00,,,0.00,0.000000,,2013-04-12 06:12:00,
2013-04-12 00:22:00,37.0,26.0,-100.00,NNW,332,2.0,6.0,64,0.00,,,0.00,0.000000,,2013-04-12 06:22:00,
2013-04-12 00:30:00,37.0,26.0,-100.00,North,4,4.0,7.0,63,0.00,,,0.00,0.000000,,2013-04-12 06:30:00,
2013-04-12 00:52:00,37.0,26.0,-100.00,North,4,4.0,7.0,63,0.00,,,0.00,0.000000,,2013-04-12 06:52:00,
2013-04-12 01:01:00,37.0,26.0,-100.00,North,4,4.0,7.0,63,0.00,,,0.00,0.000000,,2013-04-12 07:01:00,
2013-04-12 01:11:00,37.0,26.0,-100.00,North,4,4.0,7.0,63,0.00,,,0.00,0.000000,,2013-04-12 07:11:00,
2013-04-12 01:22:00,37.0,26.0,-100.00,North,4,4.0,7.0,63,0.00,,,0.00,0.000000,,2013-04-12 07:22:00,
2013-04-12 01:30:00,38.0,26.0,-100.00,North,0,4.0,7.0,62,0.00,,,0.00,0.000000,,2013-04-12 07:30:00,
2013-04-12 01:52:00,38.0,26.0,-100.00,North,0,4.0,7.0,62,0.00,,,0.00,0.000000,,2013-04-12 07:52:00,
2013-04-12 02:03:00,38.0,26.0,-100.00,North,0,4.0,7.0,62,0.00,,,0.00,0.000000,,2013-04-12 08:03:00,
2013-04-12 02:12:00,38.0,26.0,-100.00,North,0,4.0,7.0,62,0.00,,,0.00,0.000000,,2013-04-12 08:12:00,
2013-04-12 02:22:00,38.0,26.0,-100.00,North,0,4.0,7.0,62,0.00,,,0.00,0.000000,,2013-04-12 08:22:00,
2013-04-12 02:30:00,38.0,25.0,-100.00,North,356,5.0,8.0,60,0.00,,,0.00,0.000000,,2013-04-12 08:30:00,
2013-04-12 02:52:00,38.0,25.0,-100.00,North,356,5.0,8.0,60,0.00,,,0.00,0.000000,,2013-04-12 08:52:00,
2013-04-12 03:02:00,38.0,25.0,-100.00,North,356,5.0,8.0,60,0.00,,,0.00,0.000000,,2013-04-12 09:02:00,
2013-04-12 03:12:00,38.0,25.0,-100.00,North,356,5.0,8.0,60,0.00,,,0.00,0.000000,,2013-04-12 09:12:00,
2013-04-12 03:22:00,38.0,25.0,-100.00,North,356,5.0,8.0,60,0.00,,,0.00,0.000000,,2013-04-12 09:22:00,
2013-04-12 03:30:00,37.0,24.0,-100.00,North,360,4.0,8.0,59,-99.99,,,0.00,0.000000,,2013-04-12 09:30:00,
2013-04-12 03:53:00,37.0,24.0,-100.00,North,360,4.0,8.0,59,-99.99,,,0.00,0.000000,,2013-04-12 09:53:00,
2013-04-12 04:02:00,37.0,24.0,-100.00,North,360,4.0,8.0,59,-99.99,,,0.00,0.000000,,2013-04-12 10:02:00,
2013-04-12 04:12:00,37.0,24.0,-100.00,North,360,4.0,8.0,59,-99.99,,,0.00,0.000000,,2013-04-12 10:12:00,
2013-04-12 04:22:00,37.0,24.0,-100.00,North,360,4.0,8.0,59,-99.99,,,0.00,0.000000,,2013-04-12 10:22:00,
2013-04-12 04:30:00,36.0,24.0,-100.00,North,357,5.0,6.0,61,-99.99,,,0.00,0.000000,,2013-04-12 10:30:00,
2013-04-12 04:53:00,36.0,24.0,-100.00,North,357,5.0,6.0,61,-99.99,,,0.00,0.000000,,2013-04-12 10:53:00,
2013-04-12 05:02:00,36.0,24.0,-100.00,North,357,5.0,6.0,61,-99.99,,,0.00,0.000000,,2013-04-12 11:02:00,
2013-04-12 05:12:00,36.0,24.0,-100.00,North,357,5.0,6.0,61,-99.99,,,0.00,0.000000,,2013-04-12 11:12:00,
2013-04-12 05:22:00,36.0,24.0,-100.00,North,357,5.0,6.0,61,-99.99,,,0.00,0.000000,,2013-04-12 11:22:00,
2013-04-12 05:52:00,37.0,24.0,-100.00,NNW,347,4.0,6.0,59,-99.99,,,-99.99,0.000000,,2013-04-12 11:52:00,
2013-04-12 06:02:00,37.0,24.0,-100.00,NNW,347,4.0,6.0,59,-99.99,,,-99.99,0.000000,,2013-04-12 12:02:00,
2013-04-12 06:12:00,37.0,24.0,-100.00,NNW,347,4.0,6.0,59,-99.99,,,-99.99,0.000000,,2013-04-12 12:12:00,
2013-04-12 06:22:00,37.0,24.0,-100.00,NNW,347,4.0,6.0,59,-99.99,,,-99.99,0.000000,,2013-04-12 12:22:00,
2013-04-12 06:30:00,36.0,24.0,-100.00,North,358,3.0,7.0,61,-99.99,,,0.00,0.000000,,2013-04-12 12:30:00,
2013-04-12 06:53:00,36.0,24.0,-100.00,North,358,3.0,7.0,61,-99.99,,,0.00,0.000000,,2013-04-12 12:53:00,
2013-04-12 07:03:00,36.0,24.0,-100.00,North,358,3.0,7.0,61,-99.99,,,0.00,0.000000,,2013-04-12 13:03:00,
2013-04-12 07:12:00,36.0,24.0,-100.00,North,358,3.0,7.0,61,-99.99,,,0.00,0.000000,,2013-04-12 13:12:00,
2013-04-12 07:22:00,36.0,24.0,-100.00,North,358,3.0,7.0,61,-99.99,,,0.00,0.000000,,2013-04-12 13:22:00,
2013-04-12 07:30:00,38.0,25.0,-100.00,NNW,336,2.0,4.0,60,-99.99,,,0.00,44.000000,,2013-04-12 13:30:00,
2013-04-12 07:53:00,38.0,25.0,-100.00,NNW,336,2.0,4.0,60,-99.99,,,0.00,44.000000,,2013-04-12 13:53:00,
2013-04-12 08:03:00,38.0,25.0,-100.00,NNW,336,2.0,4.0,60,-99.99,,,0.00,44.000000,,2013-04-12 14:03:00,
2013-04-12 08:12:00,38.0,25.0,-100.00,NNW,336,2.0,4.0,60,-99.99,,,0.00,44.000000,,2013-04-12 14:12:00,
2013-04-12 08:22:00,38.0,25.0,-100.00,NNW,336,2.0,4.0,60,-99.99,,,0.00,44.000000,,2013-04-12 14:22:00,
2013-04-12 08:53:00,46.0,27.0,-100.00,WSW,253,2.0,5.0,48,0.00,,,0.00,289.000000,,2013-04-12 14:53:00,
2013-04-12 09:02:00,46.0,27.0,-100.00,WSW,253,2.0,5.0,48,0.00,,,0.00,289.000000,,2013-04-12 15:02:00,
2013-04-12 09:30:00,48.0,28.0,-100.00,South,175,5.0,9.0,45,0.00,,,-99.99,541.000000,,2013-04-12 15:30:00,
2013-04-12 09:53:00,48.0,28.0,-100.00,South,175,5.0,9.0,45,0.00,,,-99.99,541.000000,,2013-04-12 15:53:00,
2013-04-12 10:03:00,48.0,28.0,-100.00,South,175,5.0,9.0,45,0.00,,,-99.99,541.000000,,2013-04-12 16:03:00,
2013-04-12 10:13:00,48.0,28.0,-100.00,South,175,5.0,9.0,45,0.00,,,-99.99,541.000000,,2013-04-12 16:13:00,
2013-04-12 10:22:00,48.0,28.0,-100.00,South,175,5.0,9.0,45,0.00,,,-99.99,541.000000,,2013-04-12 16:22:00,
2013-04-12 10:30:00,49.0,27.0,-100.00,WSW,239,2.0,9.0,42,0.00,,,0.00,602.000000,,2013-04-12 16:30:00,
2013-04-12 10:53:00,49.0,27.0,-100.00,WSW,239,2.0,9.0,42,0.00,,,0.00,602.000000,,2013-04-12 16:53:00,
2013-04-12 11:03:00,49.0,27.0,-100.00,WSW,239,2.0,9.0,42,0.00,,,0.00,602.000000,,2013-04-12 17:03:00,
2013-04-12 11:12:00,49.0,27.0,-100.00,WSW,239,2.0,9.0,42,0.00,,,0.00,602.000000,,2013-04-12 17:12:00,
2013-04-12 11:22:00,49.0,27.0,-100.00,WSW,239,2.0,9.0,42,0.00,,,0.00,602.000000,,2013-04-12 17:22:00,
2013-04-12 12:03:00,52.0,25.0,-100.00,WNW,292,6.0,15.0,34,0.00,,,0.00,611.000000,,2013-04-12 18:03:00,
2013-04-12 12:14:00,52.0,25.0,-100.00,WNW,292,6.0,15.0,34,0.00,,,0.00,611.000000,,2013-04-12 18:14:00,
2013-04-12 12:29:00,52.0,25.0,-100.00,WNW,292,6.0,15.0,34,0.00,,,0.00,611.000000,,2013-04-12 18:29:00,
2013-04-12 12:30:00,53.0,24.0,-100.00,NNW,339,7.0,13.0,32,0.00,,,0.00,1041.000000,,2013-04-12 18:30:00,
2013-04-12 13:26:00,53.0,24.0,-100.00,NNW,339,7.0,13.0,32,0.00,,,0.00,1041.000000,,2013-04-12 19:26:00,
2013-04-12 13:30:00,56.0,23.0,-100.00,West,279,6.0,13.0,28,0.00,,,0.00,1011.000000,,2013-04-12 19:30:00,
2013-04-12 13:53:00,56.0,23.0,-100.00,West,279,6.0,13.0,28,0.00,,,0.00,1011.000000,,2013-04-12 19:53:00,
2013-04-12 14:02:00,56.0,23.0,-100.00,West,279,6.0,13.0,28,0.00,,,0.00,1011.000000,,2013-04-12 20:02:00,
2013-04-12 14:12:00,56.0,23.0,-100.00,West,279,6.0,13.0,28,0.00,,,0.00,1011.000000,,2013-04-12 20:12:00,
2013-04-12 14:22:00,56.0,23.0,-100.00,West,279,6.0,13.0,28,0.00,,,0.00,1011.000000,,2013-04-12 20:22:00,
2013-04-12 14:30:00,58.0,23.0,-100.00,West,275,5.0,17.0,26,0.00,,,0.00,936.000000,,2013-04-12 20:30:00,
2013-04-12 14:52:00,58.0,23.0,-100.00,West,275,5.0,17.0,26,0.00,,,0.00,936.000000,,2013-04-12 20:52:00,
2013-04-12 15:02:00,58.0,23.0,-100.00,West,275,5.0,17.0,26,0.00,,,0.00,936.000000,,2013-04-12 21:02:00,
2013-04-12 15:11:00,58.0,23.0,-100.00,West,275,5.0,17.0,26,0.00,,,0.00,936.000000,,2013-04-12 21:11:00,
2013-04-12 15:21:00,58.0,23.0,-100.00,West,275,5.0,17.0,26,0.00,,,0.00,936.000000,,2013-04-12 21:21:00,
2013-04-12 15:30:00,54.0,22.0,-100.00,NNW,333,6.0,13.0,29,0.00,,,0.00,566.000000,,2013-04-12 21:30:00,
2013-04-12 15:53:00,54.0,22.0,-100.00,NNW,333,6.0,13.0,29,0.00,,,0.00,566.000000,,2013-04-12 21:53:00,
2013-04-12 16:02:00,54.0,22.0,-100.00,NNW,333,6.0,13.0,29,0.00,,,0.00,566.000000,,2013-04-12 22:02:00,
2013-04-12 16:12:00,54.0,22.0,-100.00,NNW,333,6.0,13.0,29,0.00,,,0.00,566.000000,,2013-04-12 22:12:00,
2013-04-12 16:22:00,54.0,22.0,-100.00,NNW,333,6.0,13.0,29,0.00,,,0.00,566.000000,,2013-04-12 22:22:00,
2013-04-12 16:30:00,59.0,21.0,-100.00,West,260,4.0,15.0,23,0.00,,,0.00,681.000000,,2013-04-12 22:30:00,
2013-04-12 17:03:00,59.0,21.0,-100.00,West,260,4.0,15.0,23,0.00,,,0.00,681.000000,,2013-04-12 23:03:00,
2013-04-12 17:12:00,59.0,21.0,-100.00,West,260,4.0,15.0,23,0.00,,,0.00,681.000000,,2013-04-12 23:12:00,
2013-04-12 17:22:00,59.0,21.0,-100.00,West,260,4.0,15.0,23,0.00,,,0.00,681.000000,,2013-04-12 23:22:00,
2013-04-12 17:30:00,57.0,19.0,-100.00,NNW,347,7.0,14.0,22,0.00,,,0.00,528.000000,,2013-04-12 23:30:00,
2013-04-12 17:52:00,57.0,19.0,-100.00,NNW,347,7.0,14.0,22,0.00,,,0.00,528.000000,,2013-04-12 23:52:00,
2013-04-12 18:02:00,57.0,19.0,-100.00,NNW,347,7.0,14.0,22,0.00,,,0.00,528.000000,,2013-04-13 00:02:00,
2013-04-12 18:12:00,57.0,19.0,-100.00,NNW,347,7.0,14.0,22,0.00,,,0.00,528.000000,,2013-04-13 00:12:00,
2013-04-12 18:22:00,57.0,19.0,-100.00,NNW,347,7.0,14.0,22,0.00,,,0.00,528.000000,,2013-04-13 00:22:00,
2013-04-12 18:30:00,56.0,19.0,-100.00,NNW,336,5.0,11.0,23,0.00,,,0.00,293.000000,,2013-04-13 00:30:00,
2013-04-12 18:52:00,56.0,19.0,-100.00,NNW,336,5.0,11.0,23,0.00,,,0.00,293.000000,,2013-04-13 00:52:00,
2013-04-12 19:02:00,56.0,19.0,-100.00,NNW,336,5.0,11.0,23,0.00,,,0.00,293.000000,,2013-04-13 01:02:00,
2013-04-12 19:12:00,56.0,19.0,-100.00,NNW,336,5.0,11.0,23,0.00,,,0.00,293.000000,,2013-04-13 01:12:00,
2013-04-12 19:22:00,56.0,19.0,-100.00,NNW,336,5.0,11.0,23,0.00,,,0.00,293.000000,,2013-04-13 01:22:00,
2013-04-12 19:30:00,54.0,21.0,-100.00,NW,304,4.0,9.0,27,0.00,,,0.00,74.000000,,2013-04-13 01:30:00,
2013-04-12 19:52:00,54.0,21.0,-100.00,NW,304,4.0,9.0,27,0.00,,,0.00,74.000000,,2013-04-13 01:52:00,
2013-04-12 20:02:00,54.0,21.0,-100.00,NW,304,4.0,9.0,27,0.00,,,0.00,74.000000,,2013-04-13 02:02:00,
2013-04-12 20:12:00,54.0,21.0,-100.00,NW,304,4.0,9.0,27,0.00,,,0.00,74.000000,,2013-04-13 02:12:00,
2013-04-12 20:22:00,54.0,21.0,-100.00,NW,304,4.0,9.0,27,0.00,,,0.00,74.000000,,2013-04-13 02:22:00,
2013-04-12 20:30:00,47.0,21.0,-100.00,NNW,347,5.0,9.0,36,0.00,,,0.00,4.000000,,2013-04-13 02:30:00,
2013-04-12 20:53:00,47.0,21.0,-100.00,NNW,347,5.0,9.0,36,0.00,,,0.00,4.000000,,2013-04-13 02:53:00,
2013-04-12 21:02:00,47.0,21.0,-100.00,NNW,347,5.0,9.0,36,0.00,,,0.00,4.000000,,2013-04-13 03:02:00,
2013-04-12 21:12:00,47.0,21.0,-100.00,NNW,347,5.0,9.0,36,0.00,,,0.00,4.000000,,2013-04-13 03:12:00,
2013-04-12 21:22:00,47.0,21.0,-100.00,NNW,347,5.0,9.0,36,0.00,,,0.00,4.000000,,2013-04-13 03:22:00,
2013-04-12 21:30:00,46.0,21.0,-100.00,NW,315,4.0,8.0,37,0.00,,,0.00,0.000000,,2013-04-13 03:30:00,
2013-04-12 21:53:00,46.0,21.0,-100.00,NW,315,4.0,8.0,37,0.00,,,0.00,0.000000,,2013-04-13 03:53:00,
2013-04-12 22:02:00,46.0,21.0,-100.00,NW,315,4.0,8.0,37,0.00,,,0.00,0.000000,,2013-04-13 04:02:00,
2013-04-12 22:12:00,46.0,21.0,-100.00,NW,315,4.0,8.0,37,0.00,,,0.00,0.000000,,2013-04-13 04:12:00,
2013-04-12 22:22:00,46.0,21.0,-100.00,NW,315,4.0,8.0,37,0.00,,,0.00,0.000000,,2013-04-13 04:22:00,
2013-04-12 22:30:00,44.0,18.0,-100.00,NNW,332,3.0,8.0,35,0.00,,,0.00,0.000000,,2013-04-13 04:30:00,
2013-04-12 22:53:00,44.0,18.0,-100.00,NNW,332,3.0,8.0,35,0.00,,,0.00,0.000000,,2013-04-13 04:53:00,
2013-04-12 23:02:00,44.0,18.0,-100.00,NNW,332,3.0,8.0,35,0.00,,,0.00,0.000000,,2013-04-13 05:02:00,
2013-04-12 23:12:00,44.0,18.0,-100.00,NNW,332,3.0,8.0,35,0.00,,,0.00,0.000000,,2013-04-13 05:12:00,
2013-04-12 23:22:00,44.0,18.0,-100.00,NNW,332,3.0,8.0,35,0.00,,,0.00,0.000000,,2013-04-13 05:22:00,
2013-04-12 23:30:00,44.0,15.0,-100.00,North,354,5.0,7.0,31,0.00,,,0.00,0.000000,,2013-04-13 05:30:00,
2013-04-12 23:52:00,44.0,15.0,-100.00,North,354,5.0,7.0,31,0.00,,,0.00,0.000000,,2013-04-13 05:52:00,